createdAt,value
2022-08-20T00:06:12.745Z,100958.00
2022-08-20T00:16:37.156Z,100962.00
2022-08-20T00:27:00.153Z,100955.00
2022-08-20T00:37:21.624Z,100943.00
2022-08-20T00:47:51.072Z,100960.00
2022-08-20T00:58:12.759Z,100954.00
2022-08-20T01:08:35.511Z,100964.00
2022-08-20T01:18:57.932Z,100971.00
2022-08-20T01:29:24.814Z,100970.00
2022-08-20T01:39:46.585Z,100956.00
2022-08-20T01:50:18.246Z,100967.00
2022-08-20T02:00:39.915Z,100968.00
2022-08-20T02:11:02.783Z,100970.00
2022-08-20T02:21:28.182Z,100994.00
2022-08-20T02:32:24.828Z,100996.00
2022-08-20T02:42:32.872Z,100996.00
2022-08-20T02:53:06.918Z,100990.00
2022-08-20T03:03:29.394Z,100980.00
2022-08-20T03:13:54.547Z,100981.00
2022-08-20T03:24:17.470Z,100986.00
2022-08-20T03:34:41.931Z,100979.00
2022-08-20T03:45:04.707Z,100969.00
2022-08-20T03:55:30.847Z,100973.00
2022-08-20T04:05:53.706Z,100976.00
2022-08-20T04:16:17.035Z,100985.00
2022-08-20T04:26:38.805Z,100988.00
2022-08-20T04:37:01.574Z,100976.00
2022-08-20T04:47:24.662Z,100989.00
2022-08-20T04:58:03.067Z,100994.00
2022-08-20T05:08:26.635Z,101004.00
2022-08-20T05:18:52.474Z,101007.00
2022-08-20T05:29:14.648Z,101009.00
2022-08-20T05:39:37.837Z,101013.00
2022-08-20T05:49:59.557Z,101019.00
2022-08-20T06:00:22.237Z,101033.00
2022-08-20T06:10:45.054Z,101032.00
2022-08-20T06:21:07.902Z,101035.00
2022-08-20T06:31:33.018Z,101047.00
2022-08-20T06:41:58.596Z,101056.00
2022-08-20T06:52:20.259Z,101058.00
2022-08-20T07:03:08.787Z,101064.00
2022-08-20T07:13:30.840Z,101085.00
2022-08-20T07:23:53.881Z,101094.00
2022-08-20T07:34:15.617Z,101103.00
2022-08-20T07:44:39.327Z,101110.00
2022-08-20T07:55:01.124Z,101096.00
2022-08-20T08:05:24.136Z,101102.00
2022-08-20T08:15:49.455Z,101111.00
2022-08-20T08:26:17.894Z,101126.00
2022-08-20T08:36:41.058Z,101136.00
2022-08-20T08:47:18.513Z,101137.00
2022-08-20T08:57:41.031Z,101138.00
2022-08-20T09:08:07.843Z,101152.00
2022-08-20T09:18:29.554Z,101153.00
2022-08-20T09:28:52.495Z,101142.00
2022-08-20T09:39:13.809Z,101151.00
2022-08-20T09:49:37.348Z,101160.00
2022-08-20T10:00:02.612Z,101138.00
2022-08-20T10:10:34.792Z,101146.00
2022-08-20T10:20:56.570Z,101148.00
2022-08-20T10:31:19.478Z,101149.00
2022-08-20T10:41:41.313Z,101157.00
2022-08-20T10:52:06.040Z,101153.00
2022-08-20T11:02:29.023Z,101161.00
2022-08-20T11:12:51.775Z,101165.00
2022-08-20T11:23:13.587Z,101166.00
2022-08-20T11:33:36.374Z,101180.00
2022-08-20T11:44:20.297Z,101193.00
2022-08-20T11:54:44.398Z,101186.00
2022-08-20T12:05:06.573Z,101186.00
2022-08-20T12:15:29.837Z,101196.00
2022-08-20T12:25:51.680Z,101195.00
2022-08-20T12:36:14.663Z,101198.00
2022-08-20T12:46:36.398Z,101202.00
2022-08-20T12:56:59.405Z,101196.00
2022-08-20T13:07:20.995Z,101210.00
2022-08-20T13:17:44.359Z,101212.00
2022-08-20T13:28:06.808Z,101211.00
2022-08-20T13:38:29.857Z,101219.00
2022-08-20T13:48:51.587Z,101221.00
2022-08-20T13:59:14.539Z,101225.00
2022-08-20T14:09:40.807Z,101213.00
2022-08-20T14:20:08.351Z,101222.00
2022-08-20T14:30:44.516Z,101218.00
2022-08-20T14:41:14.927Z,101228.00
2022-08-20T14:51:39.516Z,101232.00
2022-08-20T15:02:04.550Z,101236.00
2022-08-20T15:12:28.954Z,101232.00
2022-08-20T15:22:59.008Z,101224.00
2022-08-20T15:33:22.532Z,101224.00
2022-08-20T15:43:47.434Z,101229.00
2022-08-20T15:54:26.138Z,101225.00
2022-08-20T16:05:09.287Z,101221.00
2022-08-20T16:15:33.661Z,101220.00
2022-08-20T16:26:04.446Z,101225.00
2022-08-20T16:36:36.583Z,101240.00
2022-08-20T16:47:14.001Z,101240.00
2022-08-20T16:57:35.702Z,101233.00
2022-08-20T17:08:03.580Z,101237.00
2022-08-20T17:18:28.361Z,101235.00
2022-08-20T17:28:52.660Z,101244.00
2022-08-20T17:39:19.191Z,101255.00
2022-08-20T17:49:57.457Z,101263.00
2022-08-20T18:00:38.314Z,101266.00
2022-08-20T18:11:07.783Z,101269.00
2022-08-20T18:22:03.611Z,101281.00
2022-08-20T18:32:33.351Z,101287.00
2022-08-20T18:42:54.743Z,101282.00
2022-08-20T18:53:33.710Z,101291.00
2022-08-20T19:03:58.122Z,101301.00
2022-08-20T19:14:32.870Z,101300.00
2022-08-20T19:24:58.546Z,101297.00
2022-08-20T19:35:21.897Z,101295.00
2022-08-20T19:45:47.506Z,101289.00
2022-08-20T19:56:13.576Z,101299.00
2022-08-20T20:06:47.900Z,101308.00
2022-08-20T20:17:20.998Z,101312.00
2022-08-20T20:27:51.898Z,101306.00
2022-08-20T20:38:26.571Z,101303.00
2022-08-20T20:48:52.326Z,101297.00
2022-08-20T20:59:23.166Z,101307.00
2022-08-20T21:09:44.697Z,101287.00
2022-08-20T21:20:08.931Z,101288.00
2022-08-20T21:30:30.663Z,101284.00
2022-08-20T21:40:53.507Z,101282.00
2022-08-20T21:51:19.372Z,101288.00
2022-08-20T22:01:43.339Z,101262.00
2022-08-20T22:12:06.615Z,101257.00
2022-08-20T22:22:29.531Z,101259.00
2022-08-20T22:33:01.914Z,101269.00
2022-08-20T22:43:24.808Z,101262.00
2022-08-20T22:53:46.356Z,101275.00
2022-08-20T23:04:13.882Z,101266.00
2022-08-20T23:14:36.143Z,101269.00
2022-08-20T23:25:00.692Z,101270.00
2022-08-20T23:35:23.280Z,101264.00
2022-08-20T23:45:53.143Z,101261.00
2022-08-20T23:56:14.630Z,101266.00
